createdAt,value
2023-04-09T00:00:01.132Z,1.1
2023-04-09T00:01:01.223Z,1.4
2023-04-09T00:02:01.224Z,1.3
2023-04-09T00:04:01.292Z,1.1
2023-04-09T00:05:01.151Z,1.2
2023-04-09T00:06:01.120Z,1
2023-04-09T00:08:01.156Z,1.1
2023-04-09T00:09:01.188Z,0.9
2023-04-09T00:11:01.014Z,1
2023-04-09T00:12:01.108Z,1.1
2023-04-09T00:14:01.166Z,1
2023-04-09T00:16:01.088Z,1
2023-04-09T00:20:01.142Z,0.8
2023-04-09T00:22:01.080Z,0.9
2023-04-09T00:26:01.182Z,0.7
2023-04-09T00:32:01.216Z,0.8
2023-04-09T00:34:01.067Z,0.6
2023-04-09T00:36:01.115Z,0.5
2023-04-09T00:38:01.151Z,0.4
2023-04-09T00:40:01.058Z,0.4
2023-04-09T00:41:01.040Z,0.5
2023-04-09T00:43:00.958Z,0.6
2023-04-09T00:44:01.023Z,0.5
2023-04-09T00:46:01.078Z,0.5
2023-04-09T00:47:01.093Z,0.4
2023-04-09T00:53:00.935Z,0.3
2023-04-09T00:54:01.027Z,0.4
2023-04-09T00:57:00.979Z,0.3
2023-04-09T00:58:01.081Z,0.4
2023-04-09T01:02:01.061Z,0.4
2023-04-09T01:04:01.036Z,0.2
2023-04-09T01:07:00.943Z,0.2
2023-04-09T01:10:01.032Z,0.3
2023-04-09T01:12:01.033Z,0.3
2023-04-09T01:15:01.121Z,0.4
2023-04-09T01:17:00.962Z,0.1
2023-04-09T01:18:01.028Z,0.2
2023-04-09T01:21:00.969Z,0.3
2023-04-09T01:23:00.960Z,0.1
2023-04-09T01:24:01.020Z,0.2
2023-04-09T01:26:01.056Z,0
2023-04-09T01:29:01.088Z,0.1
2023-04-09T01:31:00.968Z,0.3
2023-04-09T01:32:01.035Z,0
2023-04-09T01:34:01.033Z,0.1
2023-04-09T01:36:01.086Z,0.2
2023-04-09T01:38:01.034Z,0
2023-04-09T01:40:01.038Z,0.2
2023-04-09T01:42:01.032Z,0
2023-04-09T01:43:01.041Z,0.2
2023-04-09T01:44:01.040Z,0.1
2023-04-09T01:46:01.068Z,0.2
2023-04-09T01:50:01.067Z,0.1
2023-04-09T01:52:01.036Z,0.1
2023-04-09T01:57:00.988Z,-0.1
2023-04-09T01:58:01.016Z,0
2023-04-09T02:01:00.938Z,-0.2
2023-04-09T02:03:01.049Z,-0.1
2023-04-09T02:05:00.943Z,-0.2
2023-04-09T02:06:01.012Z,-0.1
2023-04-09T02:11:00.968Z,-0.2
2023-04-09T02:12:01.023Z,-0.1
2023-04-09T02:15:01.083Z,-0.1
2023-04-09T02:16:01.108Z,-0.2
2023-04-09T02:20:01.066Z,-0.1
2023-04-09T02:23:00.956Z,0
2023-04-09T02:25:00.924Z,-0.1
2023-04-09T02:27:00.935Z,0
2023-04-09T02:28:01.036Z,-0.1
2023-04-09T02:30:01.262Z,0.1
2023-04-09T02:33:01.010Z,-0.1
2023-04-09T02:35:00.973Z,0
2023-04-09T02:38:01.070Z,-0.1
2023-04-09T02:40:01.063Z,-0.1
2023-04-09T02:42:01.031Z,0
2023-04-09T02:44:01.042Z,-0.3
2023-04-09T02:50:01.049Z,-0.1
2023-04-09T02:54:01.040Z,-0.1
2023-04-09T03:06:01.048Z,-0.1
2023-04-09T03:09:01.025Z,-0.3
2023-04-09T03:13:00.962Z,-0.4
2023-04-09T03:14:01.048Z,-0.3
2023-04-09T03:19:00.972Z,-0.3
2023-04-09T03:20:01.091Z,-0.4
2023-04-09T03:22:01.036Z,-0.2
2023-04-09T03:24:01.045Z,-0.4
2023-04-09T03:27:00.968Z,-0.2
2023-04-09T03:30:01.157Z,-0.3
2023-04-09T03:32:01.018Z,-0.1
2023-04-09T03:36:01.087Z,-0.3
2023-04-09T03:40:01.066Z,-0.1
2023-04-09T03:43:01.120Z,-0.1
2023-04-09T03:47:01.014Z,-0.2
2023-04-09T03:51:00.947Z,-0.1
2023-04-09T03:52:01.051Z,-0.2
2023-04-09T03:58:01.106Z,-0.4
2023-04-09T04:01:00.968Z,-0.4
2023-04-09T04:02:01.044Z,-0.5
2023-04-09T04:07:00.997Z,-0.6
2023-04-09T04:08:01.027Z,-0.5
2023-04-09T04:10:01.040Z,-0.4
2023-04-09T04:13:01.016Z,-0.5
2023-04-09T04:14:01.010Z,-0.4
2023-04-09T04:15:01.182Z,-0.5
2023-04-09T04:17:00.960Z,-0.6
2023-04-09T04:18:01.078Z,-0.4
2023-04-09T04:21:01.047Z,-0.5
2023-04-09T04:22:01.077Z,-0.4
2023-04-09T04:29:01.044Z,-0.4
2023-04-09T04:31:00.967Z,-0.3
2023-04-09T04:33:00.971Z,-0.4
2023-04-09T04:34:01.045Z,-0.2
2023-04-09T04:35:01.145Z,-0.3
2023-04-09T04:37:00.944Z,-0.3
2023-04-09T04:39:00.978Z,-0.2
2023-04-09T04:41:01.065Z,-0.3
2023-04-09T04:43:00.983Z,-0.2
2023-04-09T04:50:01.074Z,-0.1
2023-04-09T04:52:01.111Z,0
2023-04-09T04:54:01.115Z,-0.2
2023-04-09T04:56:01.037Z,-0.1
2023-04-09T04:58:01.008Z,-0.2
2023-04-09T05:02:01.084Z,0
2023-04-09T05:06:01.107Z,0.1
2023-04-09T05:08:01.024Z,0.1
2023-04-09T05:10:01.029Z,0.1
2023-04-09T05:13:00.990Z,0.2
2023-04-09T05:17:00.966Z,0.3
2023-04-09T05:18:01.044Z,0.2
2023-04-09T05:22:01.030Z,0.2
2023-04-09T05:24:01.109Z,0.3
2023-04-09T05:27:00.958Z,0.4
2023-04-09T05:28:01.091Z,0.2
2023-04-09T05:31:00.978Z,0.3
2023-04-09T05:32:01.027Z,0.4
2023-04-09T05:35:00.984Z,0.5
2023-04-09T05:36:01.112Z,0.4
2023-04-09T05:39:01.006Z,0.6
2023-04-09T05:40:01.021Z,0.5
2023-04-09T05:42:01.086Z,0.6
2023-04-09T05:44:01.144Z,0.6
2023-04-09T05:49:00.918Z,0.8
2023-04-09T05:50:01.043Z,0.9
2023-04-09T05:52:01.023Z,0.8
2023-04-09T05:56:01.119Z,1
2023-04-09T05:59:00.952Z,1.1
2023-04-09T06:00:01.101Z,1
2023-04-09T06:02:01.019Z,1.1
2023-04-09T06:06:01.128Z,1.3
2023-04-09T06:09:01.053Z,1.4
2023-04-09T06:11:00.976Z,1.5
2023-04-09T06:13:00.951Z,1.7
2023-04-09T06:16:01.257Z,1.8
2023-04-09T06:18:01.063Z,1.9
2023-04-09T06:20:01.031Z,1.9
2023-04-09T06:24:01.168Z,2.1
2023-04-09T06:26:01.067Z,2
2023-04-09T06:28:01.067Z,2.1
2023-04-09T06:31:01.042Z,2.2
2023-04-09T06:33:00.959Z,2.1
2023-04-09T06:34:01.122Z,2.3
2023-04-09T06:36:01.082Z,2.5
2023-04-09T06:38:01.029Z,2.5
2023-04-09T06:41:00.987Z,2.7
2023-04-09T06:42:01.073Z,2.8
2023-04-09T06:44:01.076Z,2.9
2023-04-09T06:47:00.989Z,3.1
2023-04-09T06:48:01.089Z,3.2
2023-04-09T06:49:01.078Z,3.1
2023-04-09T06:50:01.074Z,3.3
2023-04-09T06:52:01.083Z,3.4
2023-04-09T06:55:00.975Z,3.6
2023-04-09T06:57:00.976Z,3.8
2023-04-09T06:58:01.045Z,3.6
2023-04-09T07:01:00.934Z,3.8
2023-04-09T07:02:01.113Z,4.1
2023-04-09T07:05:00.924Z,4.2
2023-04-09T07:08:01.038Z,4.4
2023-04-09T07:10:01.068Z,4.4
2023-04-09T07:13:01.014Z,4.5
2023-04-09T07:15:01.106Z,4.6
2023-04-09T07:17:00.953Z,4.8
2023-04-09T07:18:01.078Z,4.9
2023-04-09T07:21:01.003Z,5.3
2023-04-09T07:22:01.014Z,5.4
2023-04-09T07:24:01.025Z,5.5
2023-04-09T07:26:01.163Z,5.7
2023-04-09T07:28:01.089Z,5.9
2023-04-09T07:30:01.078Z,6
2023-04-09T07:33:00.974Z,6.2
2023-04-09T07:35:00.996Z,6.4
2023-04-09T07:38:01.026Z,6.5
2023-04-09T07:40:01.039Z,6.5
2023-04-09T07:46:01.110Z,6.5
2023-04-09T07:48:01.119Z,6.4
2023-04-09T07:52:01.008Z,6.6
2023-04-09T07:55:00.969Z,6.7
2023-04-09T07:56:01.011Z,6.6
2023-04-09T07:58:01.038Z,6.7
2023-04-09T08:00:01.219Z,6.6
2023-04-09T08:02:01.070Z,6.8
2023-04-09T08:04:01.248Z,6.9
2023-04-09T08:08:01.089Z,6.9
2023-04-09T08:10:01.018Z,7
2023-04-09T08:13:00.924Z,7.3
2023-04-09T08:15:01.031Z,7.4
2023-04-09T08:16:01.095Z,7.5
2023-04-09T08:18:01.034Z,7.5
2023-04-09T08:21:00.994Z,7.5
2023-04-09T08:22:01.106Z,7.6
2023-04-09T08:24:01.056Z,7.7
2023-04-09T08:26:01.089Z,7.7
2023-04-09T08:28:01.007Z,7.7
2023-04-09T08:31:00.968Z,8
2023-04-09T08:33:00.958Z,8.1
2023-04-09T08:34:01.014Z,8
2023-04-09T08:35:01.100Z,8.1
2023-04-09T08:37:00.951Z,8.5
2023-04-09T08:39:01.011Z,8.7
2023-04-09T08:40:01.014Z,8.6
2023-04-09T08:42:01.094Z,8.7
2023-04-09T08:55:00.973Z,8.6
2023-04-09T08:56:01.064Z,8.7
2023-04-09T08:58:01.047Z,8.9
2023-04-09T09:00:01.162Z,9
2023-04-09T09:02:01.107Z,9.1
2023-04-09T09:04:01.151Z,9
2023-04-09T09:06:01.015Z,9.1
2023-04-09T09:08:00.999Z,9.2
2023-04-09T09:09:01.009Z,9.1
2023-04-09T09:10:01.061Z,9.4
2023-04-09T09:12:01.019Z,9.4
2023-04-09T09:14:01.016Z,9.7
2023-04-09T09:16:01.156Z,9.8
2023-04-09T09:22:01.005Z,10.2
2023-04-09T09:24:01.058Z,10.4
2023-04-09T09:26:01.074Z,10.5
2023-04-09T09:29:00.937Z,10.7
2023-04-09T09:31:00.975Z,10.6
2023-04-09T09:32:01.020Z,10.5
2023-04-09T09:35:00.950Z,10.7
2023-04-09T09:36:01.056Z,10.6
2023-04-09T09:38:01.178Z,10.9
2023-04-09T09:42:01.041Z,11.1
2023-04-09T09:46:01.039Z,11.1
2023-04-09T09:48:01.074Z,11.2
2023-04-09T09:50:01.072Z,11.3
2023-04-09T09:52:01.100Z,11.3
2023-04-09T09:54:01.018Z,11.3
2023-04-09T09:55:01.202Z,11.6
2023-04-09T09:58:01.011Z,11.4
2023-04-09T10:00:01.141Z,11.6
2023-04-09T10:07:01.007Z,11.6
2023-04-09T10:08:01.043Z,11.8
2023-04-09T10:10:01.063Z,11.6
2023-04-09T10:13:01.038Z,11.7
2023-04-09T10:15:01.053Z,11.6
2023-04-09T10:16:01.043Z,11.5
2023-04-09T10:20:01.060Z,11.6
2023-04-09T10:22:01.068Z,11.8
2023-04-09T10:24:01.052Z,11.9
2023-04-09T10:26:01.075Z,12
2023-04-09T10:28:01.028Z,11.9
2023-04-09T10:32:01.027Z,11.9
2023-04-09T10:35:00.978Z,12.1
2023-04-09T10:36:01.063Z,12.2
2023-04-09T10:37:01.050Z,12.1
2023-04-09T10:38:01.056Z,12
2023-04-09T10:42:01.062Z,12.2
2023-04-09T10:46:01.043Z,12.3
2023-04-09T10:48:01.103Z,12.4
2023-04-09T10:51:01.199Z,12.6
2023-04-09T10:53:00.977Z,12.6
2023-04-09T10:55:00.967Z,12.7
2023-04-09T10:56:01.045Z,12.8
2023-04-09T10:58:01.035Z,12.7
2023-04-09T11:02:01.141Z,12.6
2023-04-09T11:04:01.159Z,12.7
2023-04-09T11:06:01.127Z,12.8
2023-04-09T11:09:01.008Z,13
2023-04-09T11:10:01.032Z,12.8
2023-04-09T11:12:01.026Z,12.8
2023-04-09T11:15:01.299Z,12.8
2023-04-09T11:18:01.145Z,12.9
2023-04-09T11:20:01.030Z,12.8
2023-04-09T11:21:01.070Z,12.9
2023-04-09T11:23:00.923Z,13
2023-04-09T11:24:01.109Z,13.1
2023-04-09T11:27:00.952Z,13.1
2023-04-09T11:31:01.011Z,13
2023-04-09T11:32:01.113Z,13.1
2023-04-09T11:34:01.131Z,13
2023-04-09T11:36:01.110Z,13
2023-04-09T11:38:01.084Z,13.1
2023-04-09T11:40:01.054Z,13
2023-04-09T11:43:00.971Z,13.3
2023-04-09T11:45:01.183Z,13.2
2023-04-09T11:48:01.058Z,13.2
2023-04-09T11:49:01.034Z,13.3
2023-04-09T11:50:01.043Z,13.5
2023-04-09T11:53:00.973Z,13.4
2023-04-09T11:54:01.052Z,13.5
2023-04-09T11:56:01.087Z,13.4
2023-04-09T11:59:00.927Z,13.6
2023-04-09T12:01:00.970Z,13.5
2023-04-09T12:03:01.089Z,13.6
2023-04-09T12:04:01.290Z,13.5
2023-04-09T12:06:01.217Z,13.3
2023-04-09T12:08:01.060Z,13.5
2023-04-09T12:10:01.031Z,13.6
2023-04-09T12:13:01.019Z,13.8
2023-04-09T12:14:01.069Z,13.9
2023-04-09T12:16:01.047Z,13.9
2023-04-09T12:18:01.309Z,14
2023-04-09T12:20:01.017Z,14
2023-04-09T12:21:01.033Z,14.1
2023-04-09T12:22:01.076Z,14.2
2023-04-09T12:27:00.930Z,14.1
2023-04-09T12:30:01.223Z,14.2
2023-04-09T12:32:01.056Z,14.3
2023-04-09T12:34:01.142Z,14.1
2023-04-09T12:37:00.954Z,14.2
2023-04-09T12:38:01.045Z,14.1
2023-04-09T12:40:01.035Z,13.8
2023-04-09T12:42:01.046Z,13.8
2023-04-09T12:45:01.129Z,14
2023-04-09T12:47:01.091Z,14
2023-04-09T12:48:01.128Z,14.2
2023-04-09T12:50:01.021Z,14.1
2023-04-09T12:53:00.952Z,14
2023-04-09T12:54:01.094Z,14.1
2023-04-09T12:56:01.015Z,14
2023-04-09T12:58:01.146Z,14
2023-04-09T13:00:01.347Z,13.9
2023-04-09T13:03:01.069Z,13.6
2023-04-09T13:04:01.112Z,13.5
2023-04-09T13:06:01.093Z,13.3
2023-04-09T13:07:01.098Z,13.2
2023-04-09T13:10:01.091Z,12.8
2023-04-09T13:12:01.115Z,12.6
2023-04-09T13:15:01.141Z,12.4
2023-04-09T13:16:01.136Z,12.6
2023-04-09T13:20:01.250Z,12.5
2023-04-09T13:22:01.117Z,12.6
2023-04-09T13:26:01.227Z,12.8
2023-04-09T13:28:01.082Z,13
2023-04-09T13:32:01.073Z,13.3
2023-04-09T13:40:01.042Z,13.4
2023-04-09T13:42:02.555Z,13.3
2023-04-09T13:44:01.071Z,13.1
2023-04-09T13:47:01.160Z,12.9
2023-04-09T13:49:00.958Z,12.8
2023-04-09T13:50:01.139Z,12.7
2023-04-09T13:52:01.136Z,12.7
2023-04-09T13:54:01.217Z,12.5
2023-04-09T13:56:01.048Z,12.4
2023-04-09T13:58:01.384Z,12.5
2023-04-09T14:00:01.261Z,12.5
2023-04-09T14:02:01.272Z,12.7
2023-04-09T14:04:01.179Z,12.7
2023-04-09T14:06:01.095Z,12.7
2023-04-09T14:08:01.149Z,12.6
2023-04-09T14:13:00.965Z,12.7
2023-04-09T14:14:01.103Z,12.6
2023-04-09T14:19:01.030Z,13.1
2023-04-09T14:23:00.937Z,13
2023-04-09T14:24:01.104Z,13.2
2023-04-09T14:26:01.247Z,13.1
2023-04-09T14:29:00.955Z,13.4
2023-04-09T14:31:01.177Z,13.2
2023-04-09T14:34:01.045Z,13
2023-04-09T14:35:01.098Z,13.1
2023-04-09T14:37:01.021Z,13.3
2023-04-09T14:38:01.144Z,13.2
2023-04-09T14:42:01.248Z,13.1
2023-04-09T14:47:01.039Z,13.1
2023-04-09T14:48:01.134Z,13.2
2023-04-09T14:51:01.008Z,13.1
2023-04-09T14:54:01.140Z,13
2023-04-09T14:56:01.055Z,13.1
2023-04-09T14:58:01.105Z,13.1
2023-04-09T15:02:01.185Z,13.1
2023-04-09T15:04:01.189Z,13.2
2023-04-09T15:06:01.059Z,13.2
2023-04-09T15:10:01.243Z,13.1
2023-04-09T15:12:01.124Z,13.1
2023-04-09T15:15:01.168Z,12.9
2023-04-09T15:18:01.163Z,12.8
2023-04-09T15:21:01.198Z,12.8
2023-04-09T15:25:01.162Z,12.6
2023-04-09T15:28:01.029Z,12.7
2023-04-09T15:30:01.128Z,12.8
2023-04-09T15:34:01.084Z,12.7
2023-04-09T15:35:01.234Z,12.6
2023-04-09T15:37:00.986Z,12.5
2023-04-09T15:38:01.043Z,12.8
2023-04-09T15:40:01.077Z,12.7
2023-04-09T15:43:01.102Z,12.6
2023-04-09T15:44:01.243Z,12.7
2023-04-09T15:46:01.280Z,12.6
2023-04-09T15:48:01.269Z,12.6
2023-04-09T15:51:01.046Z,12.5
2023-04-09T15:52:01.118Z,12.4
2023-04-09T15:54:01.266Z,12.2
2023-04-09T15:56:01.158Z,12.2
2023-04-09T15:58:01.170Z,12.1
2023-04-09T16:00:01.429Z,12.1
2023-04-09T16:08:01.067Z,12
2023-04-09T16:10:00.989Z,11.9
2023-04-09T16:12:00.962Z,11.7
2023-04-09T16:13:01.047Z,11.8
2023-04-09T16:15:01.182Z,11.6
2023-04-09T16:18:00.996Z,11.6
2023-04-09T16:21:01.166Z,11.5
2023-04-09T16:24:00.993Z,11.6
2023-04-09T16:25:01.120Z,11.5
2023-04-09T16:26:01.137Z,11.4
2023-04-09T16:27:01.086Z,11.5
2023-04-09T16:31:01.117Z,11.2
2023-04-09T16:33:01.057Z,11.2
2023-04-09T16:35:01.072Z,11.1
2023-04-09T16:37:01.054Z,11.1
2023-04-09T16:39:01.229Z,10.9
2023-04-09T16:41:01.143Z,10.8
2023-04-09T16:43:01.128Z,10.8
2023-04-09T16:44:01.249Z,10.7
2023-04-09T16:45:01.462Z,10.8
2023-04-09T16:48:01.142Z,10.7
2023-04-09T16:50:01.173Z,10.8
2023-04-09T16:51:01.244Z,10.6
2023-04-09T16:53:01.080Z,10.8
2023-04-09T16:55:01.099Z,10.6
2023-04-09T16:58:01.078Z,10.5
2023-04-09T16:59:01.274Z,10.7
2023-04-09T17:02:01.022Z,10.5
2023-04-09T17:05:01.079Z,10.6
2023-04-09T17:08:00.986Z,10.6
2023-04-09T17:10:01.013Z,10.4
2023-04-09T17:17:01.048Z,10.3
2023-04-09T17:18:01.213Z,10.2
2023-04-09T17:22:01.045Z,10.3
2023-04-09T17:23:01.056Z,10.2
2023-04-09T17:25:01.216Z,10
2023-04-09T17:27:01.072Z,10
2023-04-09T17:29:01.068Z,9.9
2023-04-09T17:30:01.341Z,10
2023-04-09T17:33:01.232Z,10
2023-04-09T17:36:01.072Z,9.8
2023-04-09T17:37:01.102Z,9.7
2023-04-09T17:39:01.143Z,9.7
2023-04-09T17:41:01.046Z,9.7
2023-04-09T17:44:01.024Z,9.5
2023-04-09T17:47:01.061Z,9.4
2023-04-09T17:48:01.229Z,9.6
2023-04-09T17:50:00.952Z,9.5
2023-04-09T17:51:01.042Z,9.4
2023-04-09T17:53:01.086Z,9.4
2023-04-09T17:55:01.029Z,9.4
2023-04-09T17:56:01.081Z,9.2
2023-04-09T18:00:01.204Z,9.2
2023-04-09T18:01:01.214Z,9
2023-04-09T18:03:01.247Z,9
2023-04-09T18:05:01.191Z,9
2023-04-09T18:08:00.998Z,8.9
2023-04-09T18:11:11.821Z,8.7
2023-04-09T18:13:01.071Z,8.6
2023-04-09T18:15:01.212Z,8.5
2023-04-09T18:17:01.131Z,8.6
2023-04-09T18:19:01.144Z,8.5
2023-04-09T18:21:01.042Z,8.3
2023-04-09T18:23:01.137Z,8.4
2023-04-09T18:25:01.072Z,8.3
2023-04-09T18:27:01.278Z,8.2
2023-04-09T18:29:01.585Z,8.2
2023-04-09T18:31:01.103Z,8.1
2023-04-09T18:33:01.136Z,8.3
2023-04-09T18:37:01.111Z,7.9
2023-04-09T18:40:02.596Z,7.9
2023-04-09T18:41:01.039Z,7.8
2023-04-09T18:45:01.289Z,8
2023-04-09T18:48:01.024Z,7.9
2023-04-09T18:49:01.034Z,7.7
2023-04-09T18:51:01.040Z,7.9
2023-04-09T18:53:01.047Z,7.8
2023-04-09T18:56:00.998Z,7.7
2023-04-09T18:57:01.098Z,7.6
2023-04-09T18:59:01.080Z,7.5
2023-04-09T19:01:01.060Z,7.6
2023-04-09T19:03:01.241Z,7.4
2023-04-09T19:06:00.989Z,7.4
2023-04-09T19:08:01.035Z,7.3
2023-04-09T19:10:02.083Z,7.2
2023-04-09T19:12:00.992Z,7.1
2023-04-09T19:17:01.119Z,7
2023-04-09T19:20:01.069Z,6.8
2023-04-09T19:21:01.138Z,6.9
2023-04-09T19:24:01.029Z,6.9
2023-04-09T19:25:01.101Z,6.7
2023-04-09T19:28:01.168Z,6.8
2023-04-09T19:31:03.361Z,6.6
2023-04-09T19:33:01.151Z,6.4
2023-04-09T19:34:01.075Z,6.5
2023-04-09T19:36:01.022Z,6.5
2023-04-09T19:37:01.097Z,6.4
2023-04-09T19:40:01.057Z,6.3
2023-04-09T19:41:01.081Z,6.2
2023-04-09T19:42:01.148Z,6.3
2023-04-09T19:43:01.180Z,6.2
2023-04-09T19:46:01.008Z,6.1
2023-04-09T19:47:01.098Z,6
2023-04-09T19:49:01.164Z,6.1
2023-04-09T19:51:01.086Z,6
2023-04-09T19:52:01.103Z,6.1
2023-04-09T19:53:01.107Z,6
2023-04-09T19:58:01.133Z,5.7
2023-04-09T19:59:01.320Z,5.9
2023-04-09T20:02:01.095Z,5.7
2023-04-09T20:06:01.029Z,5.8
2023-04-09T20:07:01.106Z,5.6
2023-04-09T20:08:01.132Z,5.7
2023-04-09T20:10:01.010Z,5.6
2023-04-09T20:13:01.087Z,5.5
2023-04-09T20:17:01.077Z,5.6
2023-04-09T20:19:01.130Z,5.5
2023-04-09T20:22:00.920Z,5.5
2023-04-09T20:23:01.245Z,5.4
2023-04-09T20:25:01.142Z,5.5
2023-04-09T20:27:01.048Z,5.3
2023-04-09T20:29:01.108Z,5.4
2023-04-09T20:30:01.307Z,5.1
2023-04-09T20:34:01.007Z,5
2023-04-09T20:36:00.978Z,5.1
2023-04-09T20:41:01.053Z,5
2023-04-09T20:44:01.030Z,4.8
2023-04-09T20:46:00.976Z,4.7
2023-04-09T20:47:01.056Z,4.8
2023-04-09T20:49:01.062Z,4.8
2023-04-09T20:50:01.130Z,4.9
2023-04-09T20:57:01.026Z,4.6
2023-04-09T20:59:01.048Z,4.5
2023-04-09T21:01:01.146Z,4.5
2023-04-09T21:07:01.036Z,4.4
2023-04-09T21:08:01.167Z,4.5
2023-04-09T21:10:00.992Z,4.4
2023-04-09T21:11:01.070Z,4.5
2023-04-09T21:13:01.040Z,4.6
2023-04-09T21:15:01.281Z,4.5
2023-04-09T21:17:01.075Z,4.5
2023-04-09T21:20:01.005Z,4.4
2023-04-09T21:23:01.066Z,4.5
2023-04-09T21:24:01.033Z,4.4
2023-04-09T21:26:00.921Z,4.3
2023-04-09T21:27:01.217Z,4.4
2023-04-09T21:29:01.060Z,4.3
2023-04-09T21:30:01.202Z,4.4
2023-04-09T21:34:00.968Z,4.3
2023-04-09T21:38:01.085Z,4.2
2023-04-09T21:40:01.164Z,4.3
2023-04-09T21:41:01.196Z,4.1
2023-04-09T21:44:01.108Z,4
2023-04-09T21:48:01.299Z,4.1
2023-04-09T21:50:01.151Z,4
2023-04-09T21:51:01.301Z,3.9
2023-04-09T21:52:01.390Z,3.9
2023-04-09T21:55:01.199Z,4.1
2023-04-09T21:57:01.302Z,3.9
2023-04-09T21:58:01.277Z,4
2023-04-09T22:02:01.088Z,4
2023-04-09T22:05:01.260Z,3.9
2023-04-09T22:08:01.060Z,3.7
2023-04-09T22:12:01.070Z,3.5
2023-04-09T22:13:01.143Z,3.4
2023-04-09T22:14:01.184Z,3.5
2023-04-09T22:16:01.221Z,3.4
2023-04-09T22:19:01.133Z,3.3
2023-04-09T22:22:01.231Z,3.3
2023-04-09T22:24:01.112Z,3.6
2023-04-09T22:25:01.336Z,3.3
2023-04-09T22:28:01.157Z,3.3
2023-04-09T22:29:01.186Z,3.4
2023-04-09T22:32:01.002Z,3.5
2023-04-09T22:34:06.948Z,3.2
2023-04-09T22:36:01.211Z,3.2
2023-04-09T22:37:01.223Z,3.3
2023-04-09T22:40:01.125Z,3.3
2023-04-09T22:42:01.006Z,3.2
2023-04-09T22:44:00.990Z,3.3
2023-04-09T22:48:01.049Z,3.4
2023-04-09T22:51:01.257Z,3.3
2023-04-09T22:54:01.186Z,3.4
2023-04-09T22:57:01.080Z,3.2
2023-04-09T23:01:01.266Z,3.4
2023-04-09T23:04:00.972Z,3.3
2023-04-09T23:05:01.255Z,3.2
2023-04-09T23:07:01.236Z,3.4
2023-04-09T23:09:01.366Z,3.5
2023-04-09T23:11:01.487Z,3.4
2023-04-09T23:14:01.189Z,3.4
2023-04-09T23:18:01.032Z,3.5
2023-04-09T23:20:01.270Z,3.3
2023-04-09T23:24:01.037Z,3.2
2023-04-09T23:25:01.105Z,3.1
2023-04-09T23:28:01.021Z,3.1
2023-04-09T23:29:01.089Z,3
2023-04-09T23:31:01.194Z,3.2
2023-04-09T23:34:01.078Z,3
2023-04-09T23:39:01.285Z,3.1
2023-04-09T23:42:01.185Z,2.9
2023-04-09T23:45:01.552Z,3
2023-04-09T23:47:01.092Z,2.8
2023-04-09T23:48:01.201Z,2.9
2023-04-09T23:52:01.017Z,2.9
2023-04-09T23:53:01.048Z,2.8
2023-04-09T23:58:01.084Z,2.9
